Reston, Canada
Current Conditions -  °F | °C
As of 5:33 AM on Monday 22 Dec 2014 (Local Time) from CYBR Reporting Station
Freezing Drizzle Freezing Drizzle  
Wind Chill: 23°   Ceiling: 200
Heat Index: 28°   Visibility: 1.2mi
Dew Point: 28°   Wind: 5mph
Humidity: 100%   Direction: 100°E
Pressure: 29.54"   Gusts: NA
Location:  49.55°N, 101.08°W
Report Text: CYBR 221133Z 10004KT 060V130 1 1/4SM -FZDZ BR OVC002 M02/M02 A2954 RMK ST8 ICE ON INDICATOR SLP027
Loading
Personal Weather Stations






























Interactive Weather Map New forecast layout! Learn more

10-Day Weather Forecast

Advertisements
Track Severe Weather on mobile